createdAt,value
2017-08-26T00:00:59.771Z,0
2017-08-26T00:02:09.070Z,0
2017-08-26T00:03:18.489Z,0
2017-08-26T00:04:27.718Z,0
2017-08-26T00:05:36.497Z,0
2017-08-26T00:06:46.450Z,0
2017-08-26T00:07:55.450Z,0
2017-08-26T00:09:04.552Z,0
2017-08-26T00:10:13.273Z,0
2017-08-26T00:11:21.961Z,0
2017-08-26T00:12:30.970Z,0
2017-08-26T00:13:39.966Z,0
2017-08-26T00:14:48.789Z,0
2017-08-26T00:15:58.400Z,0
2017-08-26T00:17:07.375Z,0
2017-08-26T00:18:16.365Z,0
2017-08-26T00:19:25.350Z,0
2017-08-26T00:20:34.854Z,0
2017-08-26T00:21:43.853Z,0
2017-08-26T00:22:53.462Z,0
2017-08-26T00:24:02.801Z,0
2017-08-26T00:25:11.802Z,0
2017-08-26T00:26:21.161Z,0
2017-08-26T00:27:30.144Z,0
2017-08-26T00:28:39.455Z,0
2017-08-26T00:29:48.776Z,0
2017-08-26T00:30:58.736Z,0
2017-08-26T00:32:08.513Z,0
2017-08-26T00:33:17.215Z,0
2017-08-26T00:34:26.526Z,0
2017-08-26T00:35:35.539Z,0
2017-08-26T00:36:44.527Z,0
2017-08-26T00:37:53.670Z,0
2017-08-26T00:39:02.352Z,0
2017-08-26T00:40:11.650Z,0
2017-08-26T00:41:20.933Z,0
2017-08-26T00:42:30.278Z,0
2017-08-26T00:43:39.875Z,0
2017-08-26T00:44:48.540Z,0
2017-08-26T00:45:57.570Z,0
2017-08-26T00:47:06.299Z,0
2017-08-26T00:48:15.905Z,0
2017-08-26T00:49:25.371Z,0
2017-08-26T00:50:34.361Z,0
2017-08-26T00:51:43.690Z,0
2017-08-26T00:52:52.669Z,0
2017-08-26T00:54:01.986Z,0
2017-08-26T00:55:11.112Z,0
2017-08-26T00:56:20.428Z,0
2017-08-26T00:57:29.729Z,0
2017-08-26T00:58:38.735Z,0
2017-08-26T00:59:47.717Z,0
2017-08-26T01:00:56.878Z,0
2017-08-26T01:02:05.564Z,0
2017-08-26T01:03:14.217Z,0
2017-08-26T01:04:23.822Z,0
2017-08-26T01:05:33.130Z,0
2017-08-26T01:06:42.269Z,0
2017-08-26T01:07:51.559Z,0
2017-08-26T01:09:00.213Z,0
2017-08-26T01:10:09.842Z,0
2017-08-26T01:11:19.175Z,0
2017-08-26T01:12:28.139Z,0
2017-08-26T01:13:37.441Z,0
2017-08-26T01:14:46.094Z,0
2017-08-26T01:15:55.069Z,0
2017-08-26T01:17:04.381Z,0
2017-08-26T01:18:13.541Z,0
2017-08-26T01:19:22.867Z,0
2017-08-26T01:20:32.174Z,0
2017-08-26T01:21:41.158Z,0
2017-08-26T01:22:50.799Z,0
2017-08-26T01:23:59.800Z,0
2017-08-26T01:25:08.798Z,0
2017-08-26T01:26:18.411Z,0
2017-08-26T01:27:27.388Z,0
2017-08-26T01:28:36.362Z,0
2017-08-26T01:29:45.804Z,0
2017-08-26T01:30:54.788Z,0
2017-08-26T01:32:03.808Z,0
2017-08-26T01:33:13.432Z,0
2017-08-26T01:34:22.406Z,0
2017-08-26T01:35:31.215Z,0
2017-08-26T01:36:40.215Z,0
2017-08-26T01:37:49.225Z,0
2017-08-26T01:38:57.862Z,0
2017-08-26T01:40:06.844Z,0
2017-08-26T01:41:16.450Z,0
2017-08-26T01:42:25.497Z,0
2017-08-26T01:43:34.494Z,0
2017-08-26T01:44:43.467Z,0
2017-08-26T01:45:52.453Z,0
2017-08-26T01:47:01.906Z,0
2017-08-26T01:48:10.583Z,0
2017-08-26T01:49:19.887Z,0
2017-08-26T01:50:28.874Z,0
2017-08-26T01:51:37.868Z,0
2017-08-26T01:52:47.802Z,0
2017-08-26T01:53:56.779Z,0
2017-08-26T01:55:05.786Z,0
2017-08-26T01:56:15.098Z,0
2017-08-26T01:57:24.089Z,0
2017-08-26T01:58:33.737Z,0
2017-08-26T01:59:43.351Z,0
2017-08-26T02:00:53.301Z,0
2017-08-26T02:02:02.289Z,0
2017-08-26T02:03:11.286Z,0
2017-08-26T02:04:20.747Z,0
2017-08-26T02:05:30.052Z,0
2017-08-26T02:06:39.375Z,0
2017-08-26T02:07:48.674Z,0
2017-08-26T02:08:57.985Z,0
2017-08-26T02:10:07.949Z,0
2017-08-26T02:11:17.236Z,0
2017-08-26T02:12:26.226Z,0
2017-08-26T02:13:34.902Z,0
2017-08-26T02:14:44.228Z,0
2017-08-26T02:15:53.047Z,0
2017-08-26T02:17:02.337Z,0
2017-08-26T02:18:11.653Z,0
2017-08-26T02:19:20.314Z,0
2017-08-26T02:20:29.622Z,0
2017-08-26T02:21:39.287Z,0
2017-08-26T02:22:48.275Z,0
2017-08-26T02:23:57.904Z,0
2017-08-26T02:25:06.892Z,0
2017-08-26T02:26:15.891Z,0
2017-08-26T02:27:25.026Z,0
2017-08-26T02:28:33.711Z,0
2017-08-26T02:29:42.688Z,0
2017-08-26T02:30:51.992Z,0
2017-08-26T02:32:00.640Z,0
2017-08-26T02:33:10.110Z,0
2017-08-26T02:34:20.045Z,0
2017-08-26T02:35:28.776Z,0
2017-08-26T02:36:37.747Z,0
2017-08-26T02:37:46.733Z,0
2017-08-26T02:38:55.615Z,0
2017-08-26T02:40:04.619Z,0
2017-08-26T02:41:13.629Z,0
2017-08-26T02:42:22.623Z,0
2017-08-26T02:43:31.619Z,0
2017-08-26T02:44:40.431Z,0
2017-08-26T02:45:50.050Z,0
2017-08-26T02:46:59.036Z,0
2017-08-26T02:48:07.697Z,0
2017-08-26T02:49:16.686Z,0
2017-08-26T02:50:25.437Z,0
2017-08-26T02:51:34.436Z,0
2017-08-26T02:52:43.742Z,0
2017-08-26T02:53:53.056Z,0
2017-08-26T02:55:02.370Z,0
2017-08-26T02:56:11.694Z,0
2017-08-26T02:57:20.415Z,0
2017-08-26T02:58:30.019Z,0
2017-08-26T02:59:39.316Z,0
2017-08-26T03:00:48.615Z,0
2017-08-26T03:01:58.025Z,0
2017-08-26T03:03:07.366Z,0
2017-08-26T03:04:16.698Z,0
2017-08-26T03:05:25.677Z,0
2017-08-26T03:06:35.604Z,0
2017-08-26T03:07:45.034Z,0
2017-08-26T03:08:54.042Z,0
2017-08-26T03:10:03.656Z,0
2017-08-26T03:11:12.977Z,0
2017-08-26T03:12:21.657Z,0
2017-08-26T03:13:30.951Z,0
2017-08-26T03:14:40.250Z,0
2017-08-26T03:15:49.556Z,0
2017-08-26T03:16:58.545Z,0
2017-08-26T03:18:07.203Z,0
2017-08-26T03:19:16.526Z,0
2017-08-26T03:20:25.516Z,0
2017-08-26T03:21:34.198Z,0
2017-08-26T03:22:43.828Z,0
2017-08-26T03:23:53.520Z,0
2017-08-26T03:25:02.514Z,0
2017-08-26T03:26:11.518Z,0
2017-08-26T03:27:20.497Z,0
2017-08-26T03:28:30.103Z,0
2017-08-26T03:29:39.091Z,0
2017-08-26T03:30:48.507Z,0
2017-08-26T03:31:57.503Z,0
2017-08-26T03:33:06.177Z,0
2017-08-26T03:34:15.525Z,0
2017-08-26T03:35:25.135Z,0
2017-08-26T03:36:34.586Z,0
2017-08-26T03:37:43.247Z,0
2017-08-26T03:38:51.927Z,0
2017-08-26T03:40:00.906Z,0
2017-08-26T03:41:09.881Z,0
2017-08-26T03:42:19.009Z,0
2017-08-26T03:43:28.307Z,0
2017-08-26T03:44:37.292Z,0
2017-08-26T03:45:46.587Z,0
2017-08-26T03:46:55.258Z,0
2017-08-26T03:48:04.082Z,0
2017-08-26T03:49:13.383Z,0
2017-08-26T03:50:22.364Z,0
2017-08-26T03:51:31.690Z,0
2017-08-26T03:52:40.673Z,0
2017-08-26T03:53:49.805Z,0
2017-08-26T03:54:58.484Z,0
2017-08-26T03:56:07.814Z,0
2017-08-26T03:57:16.811Z,0
2017-08-26T03:58:25.794Z,0
2017-08-26T03:59:34.464Z,0
2017-08-26T04:00:43.148Z,0
2017-08-26T04:01:51.819Z,0
2017-08-26T04:03:01.117Z,0
2017-08-26T04:04:10.112Z,0
2017-08-26T04:05:19.580Z,0
2017-08-26T04:06:28.926Z,0
2017-08-26T04:07:38.547Z,0
2017-08-26T04:08:47.227Z,0
2017-08-26T04:09:56.859Z,0
2017-08-26T04:11:05.668Z,0
2017-08-26T04:12:14.325Z,0
2017-08-26T04:13:23.625Z,0
2017-08-26T04:14:32.631Z,0
2017-08-26T04:15:41.947Z,0
2017-08-26T04:16:52.194Z,4
2017-08-26T04:18:01.847Z,4
2017-08-26T04:19:10.515Z,4
2017-08-26T04:20:19.188Z,4
2017-08-26T04:21:28.166Z,4
2017-08-26T04:22:37.255Z,4
2017-08-26T04:23:46.238Z,4
2017-08-26T04:24:55.209Z,8
2017-08-26T04:26:04.197Z,8
2017-08-26T04:27:13.163Z,8
2017-08-26T04:28:22.930Z,12
2017-08-26T04:29:32.232Z,12
2017-08-26T04:30:40.943Z,12
2017-08-26T04:31:49.939Z,12
2017-08-26T04:32:59.576Z,16
2017-08-26T04:34:09.026Z,20
2017-08-26T04:35:18.001Z,20
2017-08-26T04:36:26.683Z,24
2017-08-26T04:37:35.665Z,28
2017-08-26T04:38:44.325Z,28
2017-08-26T04:39:53.788Z,32
2017-08-26T04:41:02.762Z,32
2017-08-26T04:42:12.062Z,32
2017-08-26T04:43:21.393Z,32
2017-08-26T04:44:30.062Z,32
2017-08-26T04:45:39.832Z,32
2017-08-26T04:46:48.493Z,32
2017-08-26T04:47:57.172Z,32
2017-08-26T04:49:06.465Z,36
2017-08-26T04:50:15.987Z,44
2017-08-26T04:51:24.973Z,56
2017-08-26T04:52:34.277Z,68
2017-08-26T04:53:43.604Z,72
2017-08-26T04:54:52.581Z,80
2017-08-26T04:56:01.574Z,88
2017-08-26T04:57:10.959Z,100
2017-08-26T04:58:19.648Z,108
2017-08-26T04:59:28.307Z,112
2017-08-26T05:00:37.607Z,120
2017-08-26T05:01:46.292Z,136
2017-08-26T05:02:55.281Z,144
2017-08-26T05:04:04.893Z,152
2017-08-26T05:05:14.496Z,164
2017-08-26T05:06:23.477Z,188
2017-08-26T05:07:32.472Z,216
2017-08-26T05:08:42.123Z,248
2017-08-26T05:09:51.445Z,276
2017-08-26T05:11:00.755Z,308
2017-08-26T05:12:09.421Z,332
2017-08-26T05:13:18.736Z,352
2017-08-26T05:14:27.391Z,368
2017-08-26T05:15:36.072Z,400
2017-08-26T05:16:45.047Z,420
2017-08-26T05:17:54.352Z,436
2017-08-26T05:19:03.644Z,448
2017-08-26T05:20:12.306Z,456
2017-08-26T05:21:21.307Z,464
2017-08-26T05:22:30.608Z,480
2017-08-26T05:23:39.896Z,492
2017-08-26T05:24:48.884Z,512
2017-08-26T05:25:58.327Z,536
2017-08-26T05:27:06.991Z,564
2017-08-26T05:28:16.296Z,600
2017-08-26T05:29:25.288Z,632
2017-08-26T05:30:34.658Z,644
2017-08-26T05:31:44.602Z,656
2017-08-26T05:32:53.593Z,672
2017-08-26T05:34:02.584Z,724
2017-08-26T05:35:12.198Z,780
2017-08-26T05:36:20.888Z,820
2017-08-26T05:37:30.016Z,824
2017-08-26T05:38:39.352Z,832
2017-08-26T05:39:48.323Z,836
2017-08-26T05:40:57.627Z,848
2017-08-26T05:42:06.305Z,876
2017-08-26T05:43:15.428Z,908
2017-08-26T05:44:24.419Z,940
2017-08-26T05:45:33.938Z,948
2017-08-26T05:46:42.936Z,960
2017-08-26T05:47:51.925Z,1004
2017-08-26T05:49:01.232Z,1108
2017-08-26T05:50:10.524Z,1200
2017-08-26T05:51:19.524Z,1296
2017-08-26T05:52:28.206Z,1400
2017-08-26T05:53:37.199Z,1428
2017-08-26T05:54:45.881Z,1528
2017-08-26T05:55:54.864Z,1592
2017-08-26T05:57:03.850Z,1616
2017-08-26T05:58:13.550Z,1644
2017-08-26T05:59:22.531Z,1700
2017-08-26T06:00:32.151Z,1788
2017-08-26T06:01:41.136Z,1848
2017-08-26T06:02:49.799Z,1804
2017-08-26T06:03:59.127Z,1816
2017-08-26T06:05:07.790Z,1836
2017-08-26T06:06:16.608Z,1860
2017-08-26T06:07:25.922Z,1880
2017-08-26T06:08:34.893Z,1908
2017-08-26T06:09:43.557Z,1964
2017-08-26T06:10:52.935Z,1996
2017-08-26T06:12:02.760Z,2004
2017-08-26T06:13:12.840Z,2020
2017-08-26T06:14:22.155Z,1996
2017-08-26T06:15:31.481Z,2008
2017-08-26T06:16:40.794Z,2032
2017-08-26T06:17:49.894Z,2108
2017-08-26T06:18:58.911Z,2136
2017-08-26T06:20:08.513Z,2180
2017-08-26T06:21:18.186Z,2212
2017-08-26T06:22:27.163Z,2244
2017-08-26T06:23:36.168Z,2276
2017-08-26T06:24:45.458Z,2308
2017-08-26T06:25:54.218Z,2356
2017-08-26T06:27:03.208Z,2388
2017-08-26T06:28:11.904Z,2436
2017-08-26T06:29:21.229Z,2492
2017-08-26T06:30:30.524Z,2504
2017-08-26T06:31:39.861Z,2532
2017-08-26T06:32:49.162Z,2560
2017-08-26T06:33:57.830Z,2480
2017-08-26T06:35:07.168Z,2508
2017-08-26T06:36:15.910Z,2612
2017-08-26T06:37:25.525Z,2672
2017-08-26T06:38:34.279Z,2800
2017-08-26T06:39:43.992Z,2868
2017-08-26T06:40:53.297Z,2940
2017-08-26T06:42:01.977Z,2992
2017-08-26T06:43:10.954Z,3036
2017-08-26T06:44:19.960Z,3120
2017-08-26T06:45:28.945Z,3108
2017-08-26T06:46:38.628Z,3172
2017-08-26T06:47:48.325Z,3124
2017-08-26T06:48:56.963Z,3256
2017-08-26T06:50:06.274Z,3424
2017-08-26T06:51:16.340Z,3464
2017-08-26T06:52:25.318Z,3532
2017-08-26T06:53:34.317Z,3660
2017-08-26T06:54:43.291Z,3760
2017-08-26T06:55:52.269Z,3736
2017-08-26T06:57:01.287Z,3780
2017-08-26T06:58:10.607Z,3900
2017-08-26T06:59:19.937Z,4000
2017-08-26T07:00:28.929Z,3844
2017-08-26T07:01:37.922Z,3660
2017-08-26T07:02:46.596Z,3564
2017-08-26T07:03:55.266Z,3252
2017-08-26T07:05:04.282Z,2996
2017-08-26T07:06:12.987Z,2996
2017-08-26T07:07:21.647Z,3032
2017-08-26T07:08:30.958Z,3348
2017-08-26T07:09:39.941Z,3344
2017-08-26T07:10:48.983Z,3184
2017-08-26T07:11:58.614Z,3380
2017-08-26T07:13:07.605Z,3564
2017-08-26T07:14:16.916Z,4140
2017-08-26T07:15:26.225Z,4076
2017-08-26T07:16:35.386Z,4208
2017-08-26T07:17:44.800Z,4044
2017-08-26T07:18:53.799Z,4168
2017-08-26T07:20:02.636Z,4324
2017-08-26T07:21:11.612Z,4440
2017-08-26T07:22:20.402Z,4272
2017-08-26T07:23:29.543Z,4316
2017-08-26T07:24:38.669Z,4392
2017-08-26T07:25:47.465Z,4380
2017-08-26T07:26:57.214Z,4180
2017-08-26T07:28:07.449Z,4692
2017-08-26T07:29:16.128Z,4792
2017-08-26T07:30:25.703Z,4972
2017-08-26T07:31:34.702Z,5276
2017-08-26T07:32:44.014Z,5240
2017-08-26T07:33:52.996Z,4288
2017-08-26T07:35:02.293Z,4608
2017-08-26T07:36:11.265Z,3512
2017-08-26T07:37:21.310Z,4052
2017-08-26T07:38:29.990Z,4924
2017-08-26T07:39:38.694Z,5216
2017-08-26T07:40:48.003Z,5092
2017-08-26T07:41:57.328Z,5032
2017-08-26T07:43:06.301Z,5248
2017-08-26T07:44:15.290Z,4300
2017-08-26T07:45:24.269Z,4628
2017-08-26T07:46:33.251Z,3188
2017-08-26T07:47:42.531Z,3000
2017-08-26T07:48:51.527Z,2836
2017-08-26T07:50:00.199Z,2900
2017-08-26T07:51:09.494Z,3992
2017-08-26T07:52:18.198Z,4204
2017-08-26T07:53:27.168Z,3976
2017-08-26T07:54:36.464Z,3400
2017-08-26T07:55:45.462Z,3076
2017-08-26T07:56:54.766Z,3244
2017-08-26T07:58:04.075Z,3848
2017-08-26T07:59:12.746Z,4496
2017-08-26T08:00:22.373Z,4844
2017-08-26T08:01:31.392Z,5324
2017-08-26T08:02:40.380Z,5804
2017-08-26T08:03:49.700Z,5504
2017-08-26T08:04:58.994Z,5072
2017-08-26T08:06:07.979Z,4892
2017-08-26T08:07:16.639Z,4996
2017-08-26T08:08:25.294Z,4660
2017-08-26T08:09:33.949Z,4936
2017-08-26T08:10:43.246Z,5520
2017-08-26T08:11:52.228Z,5648
2017-08-26T08:13:01.527Z,5504
2017-08-26T08:14:10.829Z,5468
2017-08-26T08:15:20.428Z,5680
2017-08-26T08:16:29.410Z,5912
2017-08-26T08:17:38.074Z,5844
2017-08-26T08:18:47.680Z,5736
2017-08-26T08:19:57.011Z,5620
2017-08-26T08:21:06.311Z,5296
2017-08-26T08:22:15.281Z,5440
2017-08-26T08:23:23.942Z,5004
2017-08-26T08:24:32.672Z,4868
2017-08-26T08:25:41.970Z,5056
2017-08-26T08:26:50.954Z,5376
2017-08-26T08:27:59.930Z,5292
2017-08-26T08:29:08.931Z,5476
2017-08-26T08:30:18.259Z,5452
2017-08-26T08:31:27.240Z,5468
2017-08-26T08:32:36.533Z,5444
2017-08-26T08:33:45.209Z,5464
2017-08-26T08:34:54.193Z,5452
2017-08-26T08:36:03.157Z,5420
2017-08-26T08:37:12.139Z,5504
2017-08-26T08:38:21.131Z,5556
2017-08-26T08:39:30.441Z,5676
2017-08-26T08:40:39.724Z,5744
2017-08-26T08:41:48.438Z,5676
2017-08-26T08:42:57.106Z,5344
2017-08-26T08:44:05.768Z,5344
2017-08-26T08:45:15.063Z,5508
2017-08-26T08:46:24.365Z,5460
2017-08-26T08:47:33.972Z,5492
2017-08-26T08:48:42.643Z,5632
2017-08-26T08:49:51.611Z,5228
2017-08-26T08:51:00.271Z,4760
2017-08-26T08:52:10.049Z,4172
2017-08-26T08:53:19.985Z,3988
2017-08-26T08:54:29.943Z,3748
2017-08-26T08:55:40.621Z,3512
2017-08-26T08:56:49.936Z,3392
2017-08-26T08:57:58.960Z,3160
2017-08-26T08:59:08.257Z,2856
2017-08-26T09:00:17.873Z,2612
2017-08-26T09:01:26.885Z,2292
2017-08-26T09:02:36.214Z,1888
2017-08-26T09:03:44.879Z,1788
2017-08-26T09:04:53.860Z,1876
2017-08-26T09:06:02.522Z,1952
2017-08-26T09:07:11.183Z,1916
2017-08-26T09:08:20.812Z,1820
2017-08-26T09:09:29.795Z,1860
2017-08-26T09:10:38.781Z,1944
2017-08-26T09:11:48.088Z,1936
2017-08-26T09:12:57.700Z,1708
2017-08-26T09:14:06.986Z,1908
2017-08-26T09:15:16.282Z,2500
2017-08-26T09:16:25.586Z,2300
2017-08-26T09:17:34.262Z,2156
2017-08-26T09:18:43.326Z,2428
2017-08-26T09:19:52.716Z,3304
2017-08-26T09:21:01.708Z,3404
2017-08-26T09:22:11.372Z,2812
2017-08-26T09:23:21.763Z,2224
2017-08-26T09:24:31.909Z,2284
2017-08-26T09:25:42.078Z,2468
2017-08-26T09:26:51.361Z,2648
2017-08-26T09:28:00.356Z,3124
2017-08-26T09:29:09.663Z,3632
2017-08-26T09:30:18.638Z,4268
2017-08-26T09:31:27.617Z,4276
2017-08-26T09:32:36.935Z,3968
2017-08-26T09:33:46.235Z,3764
2017-08-26T09:34:55.538Z,4028
2017-08-26T09:36:04.857Z,3968
2017-08-26T09:37:14.163Z,3900
2017-08-26T09:38:23.153Z,3928
2017-08-26T09:39:32.134Z,3836
2017-08-26T09:40:41.758Z,3912
2017-08-26T09:41:50.745Z,3964
2017-08-26T09:43:00.672Z,3892
2017-08-26T09:44:10.316Z,3680
2017-08-26T09:45:19.963Z,3296
2017-08-26T09:46:28.981Z,3240
2017-08-26T09:47:38.635Z,3348
2017-08-26T09:48:48.000Z,3060
2017-08-26T09:49:57.320Z,2904
2017-08-26T09:51:06.333Z,3392
2017-08-26T09:52:15.640Z,3580
2017-08-26T09:53:24.321Z,3740
2017-08-26T09:54:33.959Z,4184
2017-08-26T09:55:43.579Z,4744
2017-08-26T09:56:52.566Z,4688
2017-08-26T09:58:01.969Z,4192
2017-08-26T09:59:11.276Z,3932
2017-08-26T10:00:20.254Z,3828
2017-08-26T10:01:29.247Z,3756
2017-08-26T10:02:38.239Z,3664
2017-08-26T10:03:46.896Z,3552
2017-08-26T10:04:55.895Z,3692
2017-08-26T10:06:05.194Z,3692
2017-08-26T10:07:13.907Z,3472
2017-08-26T10:08:22.957Z,3488
2017-08-26T10:09:32.294Z,3432
2017-08-26T10:10:43.221Z,3120
2017-08-26T10:11:52.221Z,3176
2017-08-26T10:13:01.226Z,3604
2017-08-26T10:14:10.546Z,3560
2017-08-26T10:15:19.259Z,3312
2017-08-26T10:16:27.942Z,3288
2017-08-26T10:17:37.310Z,3560
2017-08-26T10:18:46.622Z,4056
2017-08-26T10:19:56.398Z,4040
2017-08-26T10:21:05.397Z,3816
2017-08-26T10:22:14.427Z,3188
2017-08-26T10:23:23.482Z,2860
2017-08-26T10:24:32.146Z,3316
2017-08-26T10:25:41.135Z,3124
2017-08-26T10:26:50.422Z,2932
2017-08-26T10:27:59.419Z,3336
2017-08-26T10:29:08.720Z,3496
2017-08-26T10:30:17.717Z,3400
2017-08-26T10:31:26.745Z,3452
2017-08-26T10:32:36.059Z,2960
2017-08-26T10:33:45.103Z,2732
2017-08-26T10:34:54.766Z,2688
2017-08-26T10:36:03.425Z,3016
2017-08-26T10:37:12.442Z,3280
2017-08-26T10:38:21.472Z,3536
2017-08-26T10:39:31.163Z,3592
2017-08-26T10:40:41.030Z,3160
2017-08-26T10:41:50.014Z,3008
2017-08-26T10:42:59.996Z,2904
2017-08-26T10:44:08.656Z,2660
2017-08-26T10:45:17.328Z,2416
2017-08-26T10:46:26.668Z,2720
2017-08-26T10:47:35.684Z,2612
2017-08-26T10:48:44.438Z,2268
2017-08-26T10:49:53.769Z,2408
2017-08-26T10:51:02.441Z,2628
2017-08-26T10:52:11.781Z,2788
2017-08-26T10:53:21.077Z,2848
2017-08-26T10:54:29.773Z,2936
2017-08-26T10:55:39.080Z,2996
2017-08-26T10:56:48.056Z,2848
2017-08-26T10:57:57.359Z,2708
2017-08-26T10:59:06.667Z,2676
2017-08-26T11:00:16.276Z,2796
2017-08-26T11:01:25.581Z,2976
2017-08-26T11:02:34.257Z,2892
2017-08-26T11:03:43.576Z,3044
2017-08-26T11:04:52.559Z,3148
2017-08-26T11:06:02.653Z,3104
2017-08-26T11:07:11.664Z,2824
2017-08-26T11:08:20.954Z,2840
2017-08-26T11:09:30.263Z,2920
2017-08-26T11:10:39.343Z,3388
2017-08-26T11:11:48.026Z,3164
2017-08-26T11:12:57.043Z,2828
2017-08-26T11:14:05.723Z,2468
2017-08-26T11:15:15.045Z,2548
2017-08-26T11:16:24.674Z,2768
2017-08-26T11:17:33.999Z,2676
2017-08-26T11:18:43.317Z,2724
2017-08-26T11:19:51.973Z,2788
2017-08-26T11:21:01.279Z,2540
2017-08-26T11:22:10.267Z,2380
2017-08-26T11:23:19.261Z,2260
2017-08-26T11:24:27.989Z,2220
2017-08-26T11:25:36.966Z,2160
2017-08-26T11:26:45.970Z,2108
2017-08-26T11:27:54.974Z,1920
2017-08-26T11:29:04.157Z,1844
2017-08-26T11:30:13.072Z,1580
2017-08-26T11:31:22.146Z,1296
2017-08-26T11:32:31.772Z,1592
2017-08-26T11:33:41.097Z,2396
2017-08-26T11:34:49.774Z,2772
2017-08-26T11:35:58.763Z,2656
2017-08-26T11:37:08.064Z,2516
2017-08-26T11:38:16.755Z,2428
2017-08-26T11:39:26.696Z,2332
2017-08-26T11:40:36.000Z,2240
2017-08-26T11:41:44.672Z,2116
2017-08-26T11:42:53.348Z,2216
2017-08-26T11:44:02.043Z,2472
2017-08-26T11:45:11.058Z,2464
2017-08-26T11:46:20.354Z,2420
2017-08-26T11:47:29.350Z,2448
2017-08-26T11:48:38.650Z,2468
2017-08-26T11:49:47.614Z,2324
2017-08-26T11:50:56.575Z,2152
2017-08-26T11:52:05.881Z,2036
2017-08-26T11:53:14.856Z,1932
2017-08-26T11:54:24.589Z,1956
2017-08-26T11:55:33.564Z,2188
2017-08-26T11:56:42.926Z,2368
2017-08-26T11:57:51.644Z,2504
2017-08-26T11:59:00.938Z,2220
2017-08-26T12:00:10.228Z,2032
2017-08-26T12:01:19.522Z,1852
2017-08-26T12:02:28.817Z,1824
2017-08-26T12:03:37.829Z,1956
2017-08-26T12:04:46.806Z,2228
2017-08-26T12:05:56.105Z,2364
2017-08-26T12:07:05.712Z,2196
2017-08-26T12:08:15.004Z,2200
2017-08-26T12:09:23.979Z,1988
2017-08-26T12:10:32.953Z,1684
2017-08-26T12:11:42.568Z,1780
2017-08-26T12:12:51.270Z,1904
2017-08-26T12:13:59.926Z,2096
2017-08-26T12:15:09.234Z,2076
2017-08-26T12:16:18.550Z,2228
2017-08-26T12:17:27.842Z,2220
2017-08-26T12:18:36.829Z,2212
2017-08-26T12:19:46.129Z,2020
2017-08-26T12:20:55.117Z,1852
2017-08-26T12:22:03.802Z,1772
2017-08-26T12:23:13.134Z,1908
2017-08-26T12:24:21.819Z,2008
2017-08-26T12:25:30.841Z,1980
2017-08-26T12:26:39.624Z,2024
2017-08-26T12:27:48.611Z,2092
2017-08-26T12:28:57.649Z,2152
2017-08-26T12:30:06.653Z,2272
2017-08-26T12:31:15.646Z,2324
2017-08-26T12:32:24.665Z,2516
2017-08-26T12:33:33.988Z,2464
2017-08-26T12:34:42.645Z,2472
2017-08-26T12:35:51.637Z,2460
2017-08-26T12:37:00.403Z,2532
2017-08-26T12:38:09.808Z,2416
2017-08-26T12:39:18.489Z,2336
2017-08-26T12:40:27.476Z,2176
2017-08-26T12:41:36.480Z,2160
2017-08-26T12:42:45.159Z,2008
2017-08-26T12:43:53.996Z,1888
2017-08-26T12:45:03.514Z,2216
2017-08-26T12:46:13.080Z,2280
2017-08-26T12:47:22.464Z,2016
2017-08-26T12:48:31.300Z,1984
2017-08-26T12:49:40.314Z,2196
2017-08-26T12:50:50.238Z,2264
2017-08-26T12:51:59.980Z,2076
2017-08-26T12:53:08.845Z,1876
2017-08-26T12:54:18.437Z,2064
2017-08-26T12:55:28.435Z,2344
2017-08-26T12:56:37.753Z,2148
2017-08-26T12:57:46.805Z,1948
2017-08-26T12:58:55.478Z,1616
2017-08-26T13:00:04.781Z,1604
2017-08-26T13:01:14.088Z,1820
2017-08-26T13:02:23.258Z,1732
2017-08-26T13:03:32.579Z,1532
2017-08-26T13:04:41.350Z,1488
2017-08-26T13:05:50.662Z,1896
2017-08-26T13:06:59.765Z,2728
2017-08-26T13:08:08.746Z,3136
2017-08-26T13:09:18.356Z,2940
2017-08-26T13:10:27.703Z,2692
2017-08-26T13:11:37.033Z,2552
2017-08-26T13:12:46.090Z,2488
2017-08-26T13:13:55.710Z,2516
2017-08-26T13:15:04.725Z,2400
2017-08-26T13:16:14.062Z,2172
2017-08-26T13:17:23.107Z,1996
2017-08-26T13:18:31.759Z,1916
2017-08-26T13:19:41.084Z,1884
2017-08-26T13:20:50.378Z,1880
2017-08-26T13:21:59.037Z,1888
2017-08-26T13:23:08.217Z,1936
2017-08-26T13:24:17.371Z,1884
2017-08-26T13:25:26.069Z,1736
2017-08-26T13:26:35.761Z,1616
2017-08-26T13:27:44.734Z,1688
2017-08-26T13:28:54.123Z,1720
2017-08-26T13:30:03.509Z,1696
2017-08-26T13:31:13.154Z,1736
2017-08-26T13:32:22.480Z,1924
2017-08-26T13:33:31.153Z,2268
2017-08-26T13:34:40.524Z,2004
2017-08-26T13:35:49.490Z,1940
2017-08-26T13:36:58.230Z,1928
2017-08-26T13:38:07.217Z,1700
2017-08-26T13:39:16.531Z,1448
2017-08-26T13:40:25.510Z,1380
2017-08-26T13:41:34.842Z,1316
2017-08-26T13:42:43.853Z,1292
2017-08-26T13:43:52.514Z,1308
2017-08-26T13:45:02.135Z,1404
2017-08-26T13:46:11.452Z,1552
2017-08-26T13:47:20.737Z,1764
2017-08-26T13:48:29.750Z,1952
2017-08-26T13:49:38.423Z,2080
2017-08-26T13:50:47.439Z,2024
2017-08-26T13:51:56.822Z,1908
2017-08-26T13:53:05.810Z,1712
2017-08-26T13:54:15.429Z,1424
2017-08-26T13:55:24.126Z,1292
2017-08-26T13:56:32.848Z,1288
2017-08-26T13:57:42.233Z,1336
2017-08-26T13:58:51.235Z,1516
2017-08-26T14:00:00.276Z,1556
2017-08-26T14:01:09.568Z,1488
2017-08-26T14:02:18.873Z,1432
2017-08-26T14:03:27.980Z,1484
2017-08-26T14:04:37.009Z,1604
2017-08-26T14:05:46.657Z,1696
2017-08-26T14:06:55.993Z,1716
2017-08-26T14:08:04.646Z,1792
2017-08-26T14:09:13.992Z,1680
2017-08-26T14:10:22.995Z,1660
2017-08-26T14:11:32.271Z,1848
2017-08-26T14:12:41.574Z,1840
2017-08-26T14:13:50.864Z,1636
2017-08-26T14:15:00.491Z,1616
2017-08-26T14:16:09.818Z,1824
2017-08-26T14:17:18.838Z,1984
2017-08-26T14:18:27.795Z,1840
2017-08-26T14:19:37.116Z,1844
2017-08-26T14:20:46.082Z,1828
2017-08-26T14:21:55.060Z,1688
2017-08-26T14:23:04.039Z,1600
2017-08-26T14:24:12.696Z,1620
2017-08-26T14:25:22.671Z,1584
2017-08-26T14:26:31.368Z,1464
2017-08-26T14:27:40.373Z,1408
2017-08-26T14:28:49.667Z,1404
2017-08-26T14:29:58.638Z,1440
2017-08-26T14:31:07.956Z,1476
2017-08-26T14:32:17.264Z,1604
2017-08-26T14:33:26.339Z,1524
2017-08-26T14:34:35.312Z,1492
2017-08-26T14:35:44.946Z,1508
2017-08-26T14:36:53.605Z,1504
2017-08-26T14:38:02.304Z,1508
2017-08-26T14:39:11.996Z,1536
2017-08-26T14:40:20.673Z,1592
2017-08-26T14:41:29.956Z,1628
2017-08-26T14:42:38.606Z,1648
2017-08-26T14:43:47.275Z,1660
2017-08-26T14:44:56.598Z,1652
2017-08-26T14:46:05.258Z,1660
2017-08-26T14:47:14.228Z,1676
2017-08-26T14:48:23.513Z,1688
2017-08-26T14:49:32.860Z,1692
2017-08-26T14:50:42.160Z,1660
2017-08-26T14:51:51.120Z,1640
2017-08-26T14:53:00.094Z,1632
2017-08-26T14:54:08.744Z,1640
2017-08-26T14:55:17.834Z,1640
2017-08-26T14:56:27.217Z,1628
2017-08-26T14:57:36.493Z,1620
2017-08-26T14:58:45.465Z,1576
2017-08-26T14:59:54.669Z,1516
2017-08-26T15:01:04.135Z,1500
2017-08-26T15:02:13.599Z,1492
2017-08-26T15:03:22.568Z,1484
2017-08-26T15:04:31.556Z,1424
2017-08-26T15:05:41.198Z,1396
2017-08-26T15:06:50.504Z,1376
2017-08-26T15:08:00.347Z,1320
2017-08-26T15:09:09.112Z,1276
2017-08-26T15:10:17.767Z,1196
2017-08-26T15:11:26.753Z,1120
2017-08-26T15:12:35.408Z,1100
2017-08-26T15:13:44.077Z,1132
2017-08-26T15:14:53.424Z,1192
2017-08-26T15:16:02.758Z,1216
2017-08-26T15:17:11.418Z,1264
2017-08-26T15:18:20.418Z,1384
2017-08-26T15:19:29.072Z,1496
2017-08-26T15:20:38.366Z,1636
2017-08-26T15:21:47.678Z,1716
2017-08-26T15:22:57.331Z,1552
2017-08-26T15:24:06.934Z,1408
2017-08-26T15:25:16.229Z,1408
2017-08-26T15:26:25.216Z,1492
2017-08-26T15:27:34.519Z,1588
2017-08-26T15:28:43.508Z,1548
2017-08-26T15:29:52.182Z,1584
2017-08-26T15:31:01.174Z,1520
2017-08-26T15:32:10.788Z,1388
2017-08-26T15:33:20.489Z,1304
2017-08-26T15:34:29.812Z,1280
2017-08-26T15:35:38.484Z,1244
2017-08-26T15:36:47.476Z,1220
2017-08-26T15:37:57.837Z,1192
2017-08-26T15:39:07.150Z,1200
2017-08-26T15:40:16.790Z,1168
2017-08-26T15:41:26.154Z,1128
2017-08-26T15:42:34.926Z,1056
2017-08-26T15:43:43.901Z,1024
2017-08-26T15:44:52.892Z,980
2017-08-26T15:46:01.880Z,1012
2017-08-26T15:47:10.868Z,996
2017-08-26T15:48:20.170Z,1044
2017-08-26T15:49:28.838Z,1052
2017-08-26T15:50:37.531Z,1040